Kidron, Ohio
Current Conditions -  °F | °C
As of 6:56 PM on Friday 19 Dec 2014 (Local Time) from KBJJ Reporting Station
Overcast Overcast  
Wind Chill: -2°   Ceiling: 2100
Heat Index: -2°   Visibility: 10mi
Dew Point: -6°   Wind: 3mph
Humidity: 75%   Direction: 300°WNW
Pressure: 30.28"   Gusts: NA
Location:  40.74°N, 81.74°W
Report Text: KBJJ 192356Z AUTO 30003KT 10SM OVC021 M02/M06 A3028 RMK AO2 SLP269 T10171056 11011 21017 53013 TSNO
Loading
Personal Weather Stations






























Interactive Weather Map New forecast layout! Learn more

10-Day Weather Forecast

Advertisements
Track Severe Weather on mobile